< < Back
Terminal Aerodrome Forecast


Current Version              Previous Versions:   1  2  3  4  5  6  7  8  9  

Terminal Aerodrome Forecast

279
FTUS42 KFFC 241135
TAFMCN
TAF
KMCN 241135Z 2412/2512 00000KT P6SM SCT100
     FM241400 04004KT P6SM SCT040
     FM241600 01005KT P6SM SCT050
     FM250000 08003KT P6SM FEW070
     FM250500 00000KT P6SM SKC=

Latest METAR

832
SAUS80 KWBC 250300
MTRMCN
METAR KMCN 250253Z AUTO 13003KT 10SM CLR 23/21 A3004 RMK AO2 SLP166
T02280206 51012


USA.gov is the U.S. government's official web portal to all federal, state and local government web resources and services.